Taschereau, Canada
Current Conditions -  °F | °C
As of 11:00 PM on Thursday 27 Nov 2014 (Local Time) from CYUY Reporting Station
Light Snow Light Snow  
Wind Chill: -11°   Ceiling: 22000
Heat Index:   Visibility: 6mi
Dew Point: -2°   Wind: 7mph
Humidity: 85%   Direction: 20°NNE
Pressure: 30.14"   Gusts: NA
Location:  48.67°N, 78.7°W
Report Text: CYUY 280400Z 02006KT 6SM -SN SCT060 BKN220 M17/M19 A3014 RMK SC3CI3 SLP235
Loading
Personal Weather Stations






























Interactive Weather Map New forecast layout! Learn more

10-Day Weather Forecast

Advertisements
Track Severe Weather on mobile